createdAt,value
2018-05-03T00:02:08.249Z,15.48
2018-05-03T00:08:09.071Z,17.49
2018-05-03T00:14:09.731Z,15.77
2018-05-03T00:18:10.482Z,15.33
2018-05-03T00:24:11.262Z,16.61
2018-05-03T00:28:12.115Z,15.81
2018-05-03T00:34:12.853Z,15.98
2018-05-03T00:40:13.548Z,16.39
2018-05-03T00:44:14.252Z,17.06
2018-05-03T00:50:14.996Z,19.11
2018-05-03T00:54:15.810Z,17.26
2018-05-03T00:56:16.468Z,16.2
2018-05-03T01:00:17.944Z,16.26
2018-05-03T01:06:18.662Z,16.3
2018-05-03T01:10:19.366Z,15.2
2018-05-03T01:16:20.183Z,14.61
2018-05-03T01:20:20.883Z,14.93
2018-05-03T01:22:21.574Z,13.69
2018-05-03T01:26:22.301Z,15.77
2018-05-03T01:32:23.049Z,16.04
2018-05-03T01:36:23.820Z,14.34
2018-05-03T01:42:24.588Z,15.15
2018-05-03T01:46:25.367Z,14.4
2018-05-03T01:48:26.114Z,17.5
2018-05-03T01:52:26.866Z,15.08
2018-05-03T01:58:27.731Z,15.22
2018-05-03T02:02:28.502Z,14.27
2018-05-03T02:08:29.236Z,15.66
2018-05-03T02:12:30.012Z,15.27
2018-05-03T02:14:30.666Z,17.54
2018-05-03T02:18:31.374Z,16.13
2018-05-03T02:24:32.124Z,15
2018-05-03T02:28:32.716Z,15.8
2018-05-03T02:34:33.497Z,15.66
2018-05-03T02:38:34.205Z,15.8
2018-05-03T02:40:34.992Z,15.68
2018-05-03T02:44:35.692Z,13.18
2018-05-03T02:50:36.468Z,15.51
2018-05-03T02:54:37.179Z,16.62
2018-05-03T03:00:37.869Z,14.67
2018-05-03T03:04:38.705Z,14.59
2018-05-03T03:06:39.348Z,17
2018-05-03T03:10:40.207Z,15.24
2018-05-03T03:16:40.786Z,14.62
2018-05-03T03:20:41.563Z,13.94
2018-05-03T03:26:42.217Z,18.69
2018-05-03T03:30:42.873Z,17.91
2018-05-03T03:32:43.674Z,14.51
2018-05-03T03:36:44.273Z,14.14
2018-05-03T03:42:45.081Z,14.46
2018-05-03T03:46:45.841Z,14.1
2018-05-03T03:52:46.660Z,16.21
2018-05-03T03:56:47.413Z,15.59
2018-05-03T03:58:48.159Z,15.44
2018-05-03T04:02:48.972Z,14.69
2018-05-03T04:08:49.676Z,14.44
2018-05-03T04:12:50.423Z,14.26
2018-05-03T04:18:51.255Z,13.5
2018-05-03T04:22:52.059Z,12.96
2018-05-03T04:24:52.792Z,13.74
2018-05-03T04:28:53.491Z,13.1
2018-05-03T04:34:54.217Z,16.37
2018-05-03T04:38:55.082Z,12.7
2018-05-03T04:44:55.868Z,12.73
2018-05-03T04:48:56.693Z,13.52
2018-05-03T04:50:57.481Z,13.71
2018-05-03T04:54:58.247Z,14.06
2018-05-03T05:00:59.006Z,15.17
2018-05-03T05:04:59.845Z,14.78
2018-05-03T05:11:00.772Z,16.39
2018-05-03T05:17:01.439Z,16.27
2018-05-03T05:21:02.145Z,16.14
2018-05-03T05:27:03.001Z,16.79
2018-05-03T05:31:03.684Z,15.31
2018-05-03T05:37:04.363Z,14.21
2018-05-03T05:43:05.109Z,17.8
2018-05-03T05:47:05.880Z,15.22
2018-05-03T05:53:06.712Z,13.52
2018-05-03T05:57:07.448Z,14.17
2018-05-03T06:03:08.408Z,14.37
2018-05-03T06:09:09.180Z,13.06
2018-05-03T06:13:09.884Z,11.29
2018-05-03T06:19:10.517Z,10.49
2018-05-03T06:23:11.589Z,10.39
2018-05-03T06:29:12.441Z,12.56
2018-05-03T06:35:13.118Z,11.6
2018-05-03T06:39:13.844Z,11.47
2018-05-03T06:45:15.233Z,12.27
2018-05-03T06:49:16.293Z,13.42
2018-05-03T06:55:16.978Z,9.93
2018-05-03T07:01:17.732Z,12.87
2018-05-03T07:05:18.483Z,10.59
2018-05-03T07:11:19.171Z,8.91
2018-05-03T07:15:20.245Z,9.66
2018-05-03T07:21:21.033Z,9.53
2018-05-03T07:27:21.884Z,9.47
2018-05-03T07:31:22.882Z,10.4
2018-05-03T07:37:23.618Z,10.26
2018-05-03T07:41:24.406Z,10.4
2018-05-03T07:47:25.353Z,11.93
2018-05-03T07:53:26.126Z,13
2018-05-03T07:57:26.886Z,13.35
2018-05-03T08:03:27.600Z,10.08
2018-05-03T08:07:29.258Z,12.43
2018-05-03T08:13:30.031Z,10.65
2018-05-03T08:19:30.750Z,14.44
2018-05-03T08:23:31.501Z,9.52
2018-05-03T08:29:32.284Z,12.75
2018-05-03T08:33:33.190Z,13.84
2018-05-03T08:35:33.804Z,13.87
2018-05-03T08:39:34.497Z,13.4
2018-05-03T08:45:35.225Z,12.36
2018-05-03T08:49:35.955Z,13.48
2018-05-03T08:55:36.746Z,14.71
2018-05-03T08:59:37.602Z,12
2018-05-03T09:01:38.281Z,14.58
2018-05-03T09:05:38.998Z,13.2
2018-05-03T09:11:39.882Z,13.93
2018-05-03T09:15:40.650Z,10.41
2018-05-03T09:21:41.379Z,11.56
2018-05-03T09:25:42.176Z,12.54
2018-05-03T09:27:42.895Z,15.12
2018-05-03T09:31:43.744Z,13.47
2018-05-03T09:37:44.484Z,11.37
2018-05-03T09:41:45.404Z,13.43
2018-05-03T09:47:46.163Z,10.35
2018-05-03T09:51:46.908Z,9.48
2018-05-03T09:53:47.535Z,10.48
2018-05-03T09:57:48.359Z,12.52
2018-05-03T10:03:53.638Z,9.65
2018-05-03T10:08:08.280Z,10.98
2018-05-03T10:14:15.138Z,8.9
2018-05-03T10:18:15.954Z,8.29
2018-05-03T10:24:16.791Z,8.69
2018-05-03T10:28:17.481Z,7.38
2018-05-03T10:30:18.525Z,7.26
2018-05-03T10:34:19.239Z,8.14
2018-05-03T10:40:19.910Z,7.37
2018-05-03T10:44:21.071Z,5.93
2018-05-03T10:50:22.038Z,6.67
2018-05-03T10:54:22.928Z,8.31
2018-05-03T10:56:23.834Z,7.6
2018-05-03T11:00:25.109Z,7.8
2018-05-03T11:06:25.776Z,8.8
2018-05-03T11:10:26.540Z,7.27
2018-05-03T11:16:27.384Z,6.65
2018-05-03T11:20:28.242Z,7.46
2018-05-03T11:22:29.000Z,8.3
2018-05-03T11:26:29.783Z,8.21
2018-05-03T11:32:30.628Z,8.47
2018-05-03T11:36:31.387Z,9.02
2018-05-03T11:42:32.110Z,8.08
2018-05-03T11:46:32.964Z,8.5
2018-05-03T11:48:33.863Z,7.94
2018-05-03T11:52:34.676Z,8.1
2018-05-03T12:03:36.190Z,9.47
2018-05-03T12:07:37.098Z,9.9
2018-05-03T12:13:38.253Z,9.76
2018-05-03T12:19:39.335Z,11
2018-05-03T12:23:40.097Z,10.35
2018-05-03T12:29:41.050Z,11.61
2018-05-03T12:33:41.793Z,11.39
2018-05-03T12:39:42.568Z,11.29
2018-05-03T12:45:43.318Z,11.19
2018-05-03T12:49:44.037Z,10.61
2018-05-03T12:55:44.962Z,16.36
2018-05-03T12:59:48.991Z,13.01
2018-05-03T13:05:49.746Z,16.55
2018-05-03T13:11:50.459Z,13.29
2018-05-03T13:15:51.263Z,12.32
2018-05-03T13:21:52.120Z,12.21
2018-05-03T13:25:52.865Z,13.29
2018-05-03T13:31:53.641Z,13.4
2018-05-03T13:37:54.646Z,13.91
2018-05-03T13:41:55.348Z,15.6
2018-05-03T13:47:56.029Z,14.59
2018-05-03T13:51:56.759Z,14.06
2018-05-03T13:57:57.512Z,14.93
2018-05-03T14:03:58.341Z,17.26
2018-05-03T14:07:59.125Z,19.33
2018-05-03T14:14:00.039Z,17.99
2018-05-03T14:18:00.774Z,18.13
2018-05-03T14:20:01.648Z,17.26
2018-05-03T14:24:02.446Z,17.99
2018-05-03T14:30:03.165Z,16.61
2018-05-03T14:34:03.926Z,16.28
2018-05-03T14:40:04.693Z,7.92
2018-05-03T14:44:05.461Z,6.69
2018-05-03T14:46:06.148Z,5.68
2018-05-03T14:50:08.161Z,4.73
2018-05-03T14:56:08.876Z,4.74
2018-05-03T15:00:09.730Z,5.11
2018-05-03T15:06:10.527Z,2.83
2018-05-03T15:10:11.250Z,2.63
2018-05-03T15:12:11.929Z,4.75
2018-05-03T15:16:12.659Z,3.99
2018-05-03T15:22:13.397Z,5.02
2018-05-03T15:26:14.154Z,5.29
2018-05-03T15:32:14.930Z,3.85
2018-05-03T15:36:15.593Z,2.59
2018-05-03T15:38:16.210Z,5.34
2018-05-03T15:42:16.953Z,5.94
2018-05-03T15:48:17.685Z,6.22
2018-05-03T15:52:18.365Z,5.34
2018-05-03T15:58:19.299Z,6.62
2018-05-03T16:02:19.981Z,5.04
2018-05-03T16:04:20.845Z,4.46
2018-05-03T16:08:21.570Z,4.12
2018-05-03T16:14:22.399Z,4.96
2018-05-03T16:18:23.038Z,5.36
2018-05-03T16:24:24.065Z,4.25
2018-05-03T16:28:24.909Z,4.8
2018-05-03T16:30:25.909Z,4.39
2018-05-03T16:34:26.858Z,5.08
2018-05-03T16:40:27.764Z,6.5
2018-05-03T16:44:28.513Z,5.27
2018-05-03T16:50:36.704Z,5.6
2018-05-03T16:54:37.498Z,6.68
2018-05-03T17:00:38.141Z,5.74
2018-05-03T17:06:38.790Z,7.6
2018-05-03T17:10:39.527Z,5.78
2018-05-03T17:16:40.270Z,6.24
2018-05-03T17:20:40.951Z,7.37
2018-05-03T17:22:41.670Z,7.77
2018-05-03T17:26:42.419Z,7.51
2018-05-03T17:32:43.212Z,7.42
2018-05-03T17:36:43.967Z,6.52
2018-05-03T17:42:44.664Z,9.63
2018-05-03T17:46:45.371Z,8.46
2018-05-03T17:48:46.195Z,6.7
2018-05-03T17:52:47.115Z,7.18
2018-05-03T17:58:47.886Z,7.75
2018-05-03T18:02:48.584Z,8.75
2018-05-03T18:08:49.348Z,8.16
2018-05-03T18:12:50.125Z,9.94
2018-05-03T18:14:50.775Z,6.75
2018-05-03T18:18:51.562Z,6.88
2018-05-03T18:24:52.331Z,7.54
2018-05-03T18:28:53.172Z,7.72
2018-05-03T18:34:54.083Z,10.24
2018-05-03T18:38:54.988Z,8.64
2018-05-03T18:40:55.724Z,9.15
2018-05-03T18:44:56.675Z,9.77
2018-05-03T18:50:57.415Z,7.81
2018-05-03T18:54:58.283Z,9.15
2018-05-03T19:00:59.556Z,11.65
2018-05-03T19:05:00.320Z,12.23
2018-05-03T19:07:01.065Z,10.36
2018-05-03T19:11:01.781Z,8.21
2018-05-03T19:17:02.556Z,11.81
2018-05-03T19:21:03.335Z,12.32
2018-05-03T19:27:04.322Z,11.15
2018-05-03T19:31:05.133Z,11.5
2018-05-03T19:33:05.893Z,10.24
2018-05-03T19:37:06.593Z,12.45
2018-05-03T19:43:07.549Z,14.28
2018-05-03T19:47:08.250Z,15.9
2018-05-03T19:53:09.130Z,15.55
2018-05-03T19:57:09.879Z,16.36
2018-05-03T19:59:10.706Z,15.09
2018-05-03T20:03:11.501Z,14.75
2018-05-03T20:09:12.389Z,20.71
2018-05-03T20:13:13.192Z,19.41
2018-05-03T20:19:13.922Z,17.99
2018-05-03T20:23:14.613Z,17.01
2018-05-03T20:25:15.287Z,15.03
2018-05-03T20:29:16.352Z,15.52
2018-05-03T20:39:27.707Z,18.2
2018-05-03T20:39:27.886Z,19.15
2018-05-03T20:45:29.421Z,22.8
2018-05-03T20:49:30.215Z,22.69
2018-05-03T20:55:31.234Z,18.55
2018-05-03T21:01:31.964Z,19.98
2018-05-03T21:05:32.871Z,20.17
2018-05-03T21:11:33.637Z,18.98
2018-05-03T21:15:34.495Z,17.56
2018-05-03T21:21:35.339Z,17.33
2018-05-03T21:27:36.149Z,18.03
2018-05-03T21:31:36.925Z,18.61
2018-05-03T21:37:37.905Z,20.6
2018-05-03T21:41:38.670Z,19.24
2018-05-03T21:43:39.321Z,20.18
2018-05-03T21:47:40.041Z,19.98
2018-05-03T21:53:40.786Z,18.14
2018-05-03T21:57:41.460Z,22.48
2018-05-03T22:03:42.156Z,18.5
2018-05-03T22:07:42.964Z,16.59
2018-05-03T22:09:43.582Z,20.28
2018-05-03T22:13:44.369Z,19.45
2018-05-03T22:19:45.092Z,19.21
2018-05-03T22:23:45.914Z,18.88
2018-05-03T22:29:46.575Z,12.77
2018-05-03T22:33:47.304Z,13.52
2018-05-03T22:35:48.005Z,12
2018-05-03T22:39:48.679Z,14.23
2018-05-03T22:45:49.387Z,9.56
2018-05-03T22:49:50.038Z,9.55
2018-05-03T22:55:50.804Z,8.83
2018-05-03T22:59:51.469Z,10.76
2018-05-03T23:01:52.147Z,7.58
2018-05-03T23:05:52.981Z,8.8
2018-05-03T23:11:53.643Z,6.67
2018-05-03T23:15:54.419Z,9.8
2018-05-03T23:21:55.135Z,8.51
2018-05-03T23:25:55.870Z,10.36
2018-05-03T23:27:56.603Z,8.41
2018-05-03T23:31:57.256Z,6.4
2018-05-03T23:37:58.052Z,5.85
2018-05-03T23:41:58.756Z,6.26
2018-05-03T23:47:59.439Z,7.31
2018-05-03T23:52:00.310Z,6.49
2018-05-03T23:54:00.943Z,6.32
2018-05-03T23:58:01.695Z,5.87
